Time;durP1;ratioP1;P1;durP2;ratioP2;P2;SDS_P1;SDS_P2;PMS_P1;PMS_P2;Temp;Humidity;BMP_temperature;BMP_pressure;BME280_temperature;BME280_humidity;BME280_pressure;Samples;Min_cycle;Max_cycle;Signal;HPM_P1;HPM_P2
2023/12/03 00:01:44;;;;;;;2.90;2.40;;;;;;;16.64;52.50;96180.66;105489;1261;61257;-33
2023/12/03 00:04:11;;;;;;;2.50;2.10;;;;;;;16.64;52.62;96185.67;105609;1261;61262;-33
2023/12/03 00:06:39;;;;;;;4.00;2.20;;;;;;;16.63;52.58;96223.36;105584;1263;74638;-33
2023/12/03 00:09:10;;;;;;;2.70;2.00;;;;;;;16.63;52.61;96250.86;105067;1264;65773;-33
2023/12/03 00:11:37;;;;;;;2.50;2.30;;;;;;;16.63;52.61;96268.40;105334;1257;72599;-32
2023/12/03 00:14:04;;;;;;;2.50;2.30;;;;;;;16.64;52.57;96281.45;105105;1264;61435;-32
2023/12/03 00:16:32;;;;;;;2.50;2.30;;;;;;;16.64;52.52;96305.85;105213;1260;61232;-32
2023/12/03 00:18:59;;;;;;;2.20;2.00;;;;;;;16.63;52.57;96320.98;105515;1271;74329;-32
2023/12/03 00:21:27;;;;;;;3.90;2.20;;;;;;;16.63;52.65;96333.73;105340;1263;65905;-32
2023/12/03 00:23:54;;;;;;;2.40;2.20;;;;;;;16.63;52.44;96328.48;105061;1262;72457;-32
2023/12/03 00:26:22;;;;;;;2.10;1.90;;;;;;;16.63;52.52;96330.02;105327;1262;61234;-32
2023/12/03 00:28:49;;;;;;;2.40;2.10;;;;;;;16.63;52.57;96338.44;105371;1261;61263;-32
2023/12/03 00:31:16;;;;;;;2.40;2.20;;;;;;;16.63;52.54;96338.36;105675;1262;74327;-32
2023/12/03 00:33:43;;;;;;;2.30;2.00;;;;;;;16.63;52.54;96345.38;105419;1258;64737;-32
2023/12/03 00:36:11;;;;;;;3.60;2.60;;;;;;;16.63;52.51;96349.63;105437;1261;72656;-32
2023/12/03 00:38:38;;;;;;;2.40;2.20;;;;;;;16.63;52.51;96349.79;105528;1261;61219;-32
2023/12/03 00:41:06;;;;;;;2.90;2.40;;;;;;;16.63;52.54;96354.27;105386;1260;61354;-32
2023/12/03 00:43:33;;;;;;;3.60;2.00;;;;;;;16.63;52.59;96347.16;105281;1257;74415;-31
2023/12/03 00:46:02;;;;;;;2.30;2.10;;;;;;;16.63;52.52;96353.19;105388;1271;67016;-32
2023/12/03 00:48:30;;;;;;;2.50;2.20;;;;;;;16.62;52.51;96342.29;105448;1257;73183;-32
2023/12/03 00:50:57;;;;;;;2.30;2.10;;;;;;;16.62;52.46;96349.23;105294;1261;61235;-32
2023/12/03 00:53:25;;;;;;;2.70;2.30;;;;;;;16.63;52.52;96354.42;105138;1258;61359;-31
2023/12/03 00:55:54;;;;;;;2.60;2.30;;;;;;;16.62;52.49;96362.06;105489;1262;74715;-31
2023/12/03 00:58:21;;;;;;;2.10;1.90;;;;;;;16.63;52.54;96365.55;105380;1260;64210;-31
2023/12/03 01:00:49;;;;;;;3.20;2.10;;;;;;;16.63;52.44;96366.55;105514;1260;72543;-31
2023/12/03 01:03:16;;;;;;;2.60;2.20;;;;;;;16.62;52.47;96368.02;105468;1260;61273;-33
2023/12/03 01:05:44;;;;;;;3.00;2.20;;;;;;;16.63;52.43;96366.00;105267;1257;61346;-31
2023/12/03 01:08:11;;;;;;;2.20;2.00;;;;;;;16.63;52.48;96356.11;105380;1261;74640;-31
2023/12/03 01:10:39;;;;;;;2.30;2.10;;;;;;;16.62;52.43;96351.09;105161;1260;66119;-31
2023/12/03 01:13:06;;;;;;;2.30;2.10;;;;;;;16.62;52.37;96359.05;105138;1257;71421;-31
2023/12/03 01:15:33;;;;;;;2.00;1.70;;;;;;;16.62;52.46;96361.37;105419;1264;61259;-31
2023/12/03 01:18:01;;;;;;;2.30;1.80;;;;;;;16.62;52.42;96356.80;105384;1257;61268;-31
2023/12/03 01:20:28;;;;;;;2.60;2.20;;;;;;;16.61;52.35;96359.09;105455;1259;74567;-31
2023/12/03 01:22:56;;;;;;;3.10;2.40;;;;;;;16.61;52.43;96372.39;105160;1261;65192;-31
2023/12/03 01:25:24;;;;;;;2.40;2.20;;;;;;;16.61;52.42;96383.12;105149;1262;72580;-31
2023/12/03 01:27:51;;;;;;;2.30;2.10;;;;;;;16.61;52.42;96393.54;105396;1260;61239;-31
2023/12/03 01:30:19;;;;;;;2.50;2.20;;;;;;;16.62;52.48;96406.60;105523;1257;61917;-31
2023/12/03 01:32:46;;;;;;;2.30;2.10;;;;;;;16.61;52.45;96411.23;105553;1260;74416;-31
2023/12/03 01:35:14;;;;;;;2.30;2.10;;;;;;;16.61;52.43;96421.27;105511;1260;65849;-30
2023/12/03 01:37:42;;;;;;;2.30;2.10;;;;;;;16.61;52.40;96428.14;105567;1258;72590;-31
2023/12/03 01:40:10;;;;;;;2.10;1.90;;;;;;;16.61;52.37;96433.86;105294;1258;61322;-31
2023/12/03 01:42:37;;;;;;;2.70;2.50;;;;;;;16.61;52.43;96438.10;105445;1256;61276;-31
2023/12/03 01:45:05;;;;;;;2.40;2.00;;;;;;;16.61;52.33;96445.82;105273;1261;73659;-31
2023/12/03 01:47:33;;;;;;;2.20;2.00;;;;;;;16.61;52.42;96448.45;105298;1256;67654;-31
2023/12/03 01:50:07;;;;;;;2.30;2.10;;;;;;;16.61;52.44;96453.70;104992;1258;73382;-31
2023/12/03 01:52:35;;;;;;;2.10;1.90;;;;;;;16.61;52.34;96453.94;105546;1261;61265;-31
2023/12/03 01:55:06;;;;;;;2.50;2.00;;;;;;;16.61;52.35;96460.73;105520;1262;61426;-31
2023/12/03 01:57:33;;;;;;;2.50;2.30;;;;;;;16.60;52.46;96463.73;105489;1263;74598;-31
2023/12/03 02:00:02;;;;;;;2.20;2.00;;;;;;;16.60;52.49;96472.23;105485;1262;65958;-31
2023/12/03 02:02:39;;;;;;;4.60;2.10;;;;;;;16.60;52.36;96469.05;105435;1257;72660;-32
2023/12/03 02:05:08;;;;;;;2.20;1.90;;;;;;;16.59;52.42;96471.60;105331;1260;61334;-32
2023/12/03 02:07:36;;;;;;;2.30;2.10;;;;;;;16.59;52.42;96479.40;105328;1258;61249;-32
2023/12/03 02:10:04;;;;;;;2.50;2.30;;;;;;;16.60;52.39;96482.26;105603;1260;74607;-31
2023/12/03 02:12:32;;;;;;;2.20;2.00;;;;;;;16.59;52.41;96480.23;105597;1257;64819;-31
2023/12/03 02:14:59;;;;;;;2.70;2.00;;;;;;;16.59;52.43;96486.03;105334;1258;72614;-31
2023/12/03 02:17:27;;;;;;;2.40;2.20;;;;;;;16.59;52.46;96495.05;105581;1260;61729;-31
2023/12/03 02:19:55;;;;;;;2.00;1.80;;;;;;;16.58;52.40;96496.44;105516;1257;61639;-31
2023/12/03 02:22:22;;;;;;;2.40;2.20;;;;;;;16.59;52.36;96507.27;105556;1257;73607;-31
2023/12/03 02:24:50;;;;;;;2.30;1.90;;;;;;;16.59;52.42;96515.91;105442;1261;66299;-31
2023/12/03 02:27:17;;;;;;;2.50;2.00;;;;;;;16.58;52.32;96520.46;105202;1260;72409;-33
2023/12/03 02:29:48;;;;;;;2.20;2.00;;;;;;;16.59;52.40;96520.47;105261;1257;61256;-31
2023/12/03 02:32:15;;;;;;;2.30;1.70;;;;;;;16.58;52.33;96530.42;105455;1258;61167;-31
2023/12/03 02:34:43;;;;;;;2.30;2.10;;;;;;;16.58;52.41;96523.48;105444;1261;74666;-31
2023/12/03 02:37:10;;;;;;;2.80;2.00;;;;;;;16.58;52.34;96538.15;105238;1260;66204;-31
2023/12/03 02:39:37;;;;;;;2.20;2.10;;;;;;;16.58;52.30;96552.20;105273;1257;71429;-31
2023/12/03 02:42:05;;;;;;;2.30;2.10;;;;;;;16.57;52.41;96556.98;105136;1260;61235;-31
2023/12/03 02:44:32;;;;;;;2.20;2.00;;;;;;;16.57;52.45;96565.33;105106;1257;61344;-32
2023/12/03 02:46:59;;;;;;;2.40;2.20;;;;;;;16.57;52.42;96569.40;105116;1257;74407;-32
2023/12/03 02:49:27;;;;;;;2.30;2.00;;;;;;;16.57;52.34;96582.77;105172;1260;65943;-31
2023/12/03 02:51:54;;;;;;;2.20;2.00;;;;;;;16.57;52.44;96588.55;105168;1258;72910;-30
2023/12/03 02:54:21;;;;;;;2.10;1.90;;;;;;;16.57;52.37;96595.82;105187;1261;61352;-32
2023/12/03 02:56:48;;;;;;;2.20;2.00;;;;;;;16.56;52.28;96593.10;105319;1257;61351;-32
2023/12/03 02:59:16;;;;;;;2.30;2.00;;;;;;;16.56;52.27;96601.21;105424;1261;74844;-32
2023/12/03 03:01:43;;;;;;;2.30;2.10;;;;;;;16.56;52.36;96601.05;105548;1261;65924;-32
2023/12/03 03:04:10;;;;;;;2.30;2.10;;;;;;;16.56;52.31;96615.27;105157;1257;72416;-32
2023/12/03 03:06:38;;;;;;;2.20;2.00;;;;;;;16.56;52.40;96621.29;105239;1260;61244;-32
2023/12/03 03:09:05;;;;;;;2.50;2.20;;;;;;;16.56;52.32;96625.84;105243;1257;61321;-32
2023/12/03 03:11:32;;;;;;;2.30;2.10;;;;;;;16.56;52.38;96639.98;105535;1257;73329;-32
2023/12/03 03:14:00;;;;;;;2.50;1.90;;;;;;;16.56;52.39;96646.23;105500;1260;65079;-32
2023/12/03 03:16:27;;;;;;;2.20;1.90;;;;;;;16.56;52.33;96658.52;105502;1258;72703;-32
2023/12/03 03:18:54;;;;;;;2.40;2.00;;;;;;;16.55;52.32;96664.14;105561;1271;61231;-32
2023/12/03 03:21:22;;;;;;;2.70;2.20;;;;;;;16.55;52.37;96675.73;105605;1257;61358;-32
2023/12/03 03:23:49;;;;;;;2.30;2.10;;;;;;;16.55;52.28;96678.33;105525;1257;75036;-32
2023/12/03 03:26:16;;;;;;;2.20;1.80;;;;;;;16.55;52.37;96682.19;105456;1260;67246;-32
2023/12/03 03:28:44;;;;;;;3.80;2.20;;;;;;;16.54;52.38;96684.35;105477;1257;72284;-32
2023/12/03 03:31:11;;;;;;;2.20;2.00;;;;;;;16.55;52.32;96696.79;105261;1260;61289;-32
2023/12/03 03:33:38;;;;;;;2.70;2.20;;;;;;;16.54;52.35;96702.95;105203;1258;61349;-32
2023/12/03 03:36:06;;;;;;;2.60;2.10;;;;;;;16.54;52.40;96702.33;105258;1260;74580;-32
2023/12/03 03:38:34;;;;;;;2.30;2.10;;;;;;;16.54;52.38;96706.42;105532;1260;65496;-31
2023/12/03 03:41:01;;;;;;;2.10;1.90;;;;;;;16.53;52.28;96706.41;105398;1258;72338;-31
2023/12/03 03:43:28;;;;;;;2.40;2.20;;;;;;;16.53;52.25;96704.56;105270;1261;61255;-32
2023/12/03 03:45:57;;;;;;;2.60;2.10;;;;;;;16.53;52.36;96711.73;105374;1258;61370;-33
2023/12/03 03:48:24;;;;;;;3.10;2.20;;;;;;;16.53;52.36;96712.73;105595;1258;73628;-32
2023/12/03 03:50:51;;;;;;;2.50;2.30;;;;;;;16.53;52.26;96719.54;105585;1260;66128;-31
2023/12/03 03:53:19;;;;;;;2.70;2.20;;;;;;;16.53;52.28;96724.17;105454;1257;72332;-32
2023/12/03 03:55:46;;;;;;;2.50;2.20;;;;;;;16.53;52.40;96730.35;105601;1261;61250;-31
2023/12/03 03:58:14;;;;;;;2.60;2.00;;;;;;;16.52;52.33;96735.42;105324;1257;61343;-31
2023/12/03 04:00:41;;;;;;;2.50;2.20;;;;;;;16.52;52.40;96742.61;105453;1261;74714;-32
2023/12/03 04:03:08;;;;;;;2.70;2.30;;;;;;;16.52;52.40;96756.81;105158;1260;65823;-32
2023/12/03 04:05:36;;;;;;;4.00;2.40;;;;;;;16.52;52.39;96763.37;105663;1257;72937;-32
2023/12/03 04:08:03;;;;;;;2.50;1.90;;;;;;;16.52;52.26;96772.40;105137;1261;61244;-31
2023/12/03 04:10:31;;;;;;;2.50;2.20;;;;;;;16.52;52.35;96775.42;105298;1261;61237;-31
2023/12/03 04:12:58;;;;;;;3.10;2.20;;;;;;;16.51;52.31;96783.13;105432;1260;73957;-31
2023/12/03 04:15:25;;;;;;;2.50;2.30;;;;;;;16.52;52.24;96782.52;105342;1261;64702;-31
2023/12/03 04:17:52;;;;;;;2.40;2.20;;;;;;;16.52;52.34;96781.98;105212;1258;72626;-31
2023/12/03 04:20:20;;;;;;;2.40;2.20;;;;;;;16.51;52.38;96782.96;105290;1260;61248;-32
2023/12/03 04:22:48;;;;;;;3.00;2.20;;;;;;;16.51;52.23;96795.63;105139;1261;61279;-33
2023/12/03 04:25:15;;;;;;;2.30;2.10;;;;;;;16.51;52.29;96802.56;105338;1257;74556;-31
2023/12/03 04:27:43;;;;;;;3.10;2.10;;;;;;;16.51;52.27;96815.92;105290;1260;66207;-32
2023/12/03 04:30:11;;;;;;;2.40;2.10;;;;;;;16.50;52.29;96826.71;105482;1258;72627;-32
2023/12/03 04:32:38;;;;;;;2.80;2.20;;;;;;;16.50;52.25;96835.35;105487;1257;61449;-31
2023/12/03 04:35:08;;;;;;;2.30;2.00;;;;;;;16.50;52.26;96844.09;105146;1257;61208;-31
2023/12/03 04:37:35;;;;;;;2.20;2.00;;;;;;;16.50;52.22;96847.85;105477;1261;75461;-31
2023/12/03 04:40:03;;;;;;;2.80;2.30;;;;;;;16.49;52.36;96850.80;105237;1261;65388;-32
2023/12/03 04:42:31;;;;;;;3.40;2.30;;;;;;;16.50;52.26;96868.80;105464;1257;72345;-32
2023/12/03 04:44:58;;;;;;;2.70;2.40;;;;;;;16.49;52.29;96878.12;105467;1261;61268;-32
2023/12/03 04:47:26;;;;;;;2.90;2.50;;;;;;;16.49;52.30;96892.24;105594;1257;61272;-32
2023/12/03 04:49:53;;;;;;;2.20;2.00;;;;;;;16.49;52.31;96908.09;105547;1260;74586;-31
2023/12/03 04:52:20;;;;;;;3.20;2.30;;;;;;;16.49;52.24;96922.51;105365;1260;65553;-33
2023/12/03 04:54:48;;;;;;;2.30;2.00;;;;;;;16.48;52.33;96924.74;105061;1258;72433;-32
2023/12/03 04:57:15;;;;;;;2.60;2.40;;;;;;;16.48;52.25;96930.06;105492;1260;61267;-31
2023/12/03 04:59:42;;;;;;;2.00;1.90;;;;;;;16.47;52.31;96938.69;105545;1256;61324;-31
2023/12/03 05:02:10;;;;;;;2.20;2.00;;;;;;;16.47;52.31;96937.23;105604;1261;74439;-31
2023/12/03 05:04:37;;;;;;;2.50;2.30;;;;;;;16.47;52.26;96945.49;105467;1260;66046;-32
2023/12/03 05:07:05;;;;;;;2.60;2.40;;;;;;;16.47;52.27;96950.50;105280;1257;72628;-32
2023/12/03 05:09:32;;;;;;;2.50;2.30;;;;;;;16.47;52.23;96964.80;105492;1261;61262;-31
2023/12/03 05:12:00;;;;;;;2.50;2.20;;;;;;;16.47;52.25;96973.04;105264;1256;61292;-31
2023/12/03 05:14:27;;;;;;;2.50;2.30;;;;;;;16.46;52.17;96975.60;105524;1257;74445;-31
2023/12/03 05:16:54;;;;;;;2.30;2.10;;;;;;;16.47;52.12;96988.95;105594;1261;65975;-31
2023/12/03 05:19:21;;;;;;;2.30;2.10;;;;;;;16.46;52.14;96995.82;105516;1258;72489;-30
2023/12/03 05:21:49;;;;;;;2.60;2.40;;;;;;;16.46;52.31;96997.83;105231;1260;61264;-32
2023/12/03 05:24:16;;;;;;;2.60;2.40;;;;;;;16.45;52.23;97003.98;105236;1257;61267;-31
2023/12/03 05:26:44;;;;;;;2.60;2.20;;;;;;;16.45;52.19;97007.77;105526;1261;74645;-32
2023/12/03 05:29:11;;;;;;;2.70;2.40;;;;;;;16.44;52.30;97015.41;105521;1258;65471;-32
2023/12/03 05:31:44;;;;;;;2.60;2.30;;;;;;;16.44;52.19;97025.89;105555;1257;71655;-32
2023/12/03 05:34:11;;;;;;;2.30;2.10;;;;;;;16.44;52.11;97033.08;105564;1257;61863;-32
2023/12/03 05:36:39;;;;;;;2.50;2.30;;;;;;;16.44;52.32;97030.38;105519;1257;61144;-31
2023/12/03 05:39:06;;;;;;;3.30;2.50;;;;;;;16.44;52.29;97036.78;105488;1260;74450;-31
2023/12/03 05:41:40;;;;;;;2.60;2.40;;;;;;;16.45;52.27;97038.11;105307;1261;65787;-32
2023/12/03 05:44:07;;;;;;;2.60;2.40;;;;;;;16.44;52.13;97041.19;105098;1260;71661;-32
2023/12/03 05:46:41;;;;;;;3.40;2.70;;;;;;;16.43;52.10;97039.95;105153;1261;61261;-31
2023/12/03 05:49:08;;;;;;;3.20;2.50;;;;;;;16.43;52.03;97038.08;105222;1260;61201;-32
2023/12/03 05:51:36;;;;;;;2.80;2.40;;;;;;;16.43;52.19;97042.09;105238;1258;73203;-31
2023/12/03 05:54:03;;;;;;;2.40;2.20;;;;;;;16.42;52.21;97046.16;105315;1260;66580;-31
2023/12/03 05:56:31;;;;;;;2.50;2.30;;;;;;;16.43;52.27;97059.70;105198;1257;72610;-32
2023/12/03 05:58:58;;;;;;;3.00;2.40;;;;;;;16.42;52.21;97073.26;105377;1260;61260;-32
2023/12/03 06:01:25;;;;;;;3.00;2.20;;;;;;;16.42;52.25;97086.86;105610;1257;61330;-31
2023/12/03 06:03:53;;;;;;;3.00;2.40;;;;;;;16.42;52.21;97096.19;105570;1258;74388;-31
2023/12/03 06:06:20;;;;;;;2.60;2.20;;;;;;;16.42;52.20;97107.53;105472;1261;63760;-31
2023/12/03 06:08:48;;;;;;;2.20;2.00;;;;;;;16.42;52.14;97117.42;105053;1258;72857;-31
2023/12/03 06:11:15;;;;;;;2.40;2.20;;;;;;;16.41;52.14;97119.20;105230;1260;61265;-32
2023/12/03 06:13:43;;;;;;;5.00;2.20;;;;;;;16.41;52.14;97126.22;105093;1258;61319;-32
2023/12/03 06:16:10;;;;;;;2.30;2.10;;;;;;;16.42;52.11;97131.39;105264;1261;74596;-32
2023/12/03 06:18:37;;;;;;;2.70;2.40;;;;;;;16.41;52.12;97146.38;105503;1261;65468;-32
2023/12/03 06:21:07;;;;;;;2.60;2.40;;;;;;;16.41;52.12;97148.68;105443;1258;72412;-33
2023/12/03 06:23:35;;;;;;;3.30;2.30;;;;;;;16.40;52.14;97152.36;105482;1260;61247;-32
2023/12/03 06:26:02;;;;;;;2.70;2.30;;;;;;;16.40;52.13;97155.30;105608;1258;61171;-31
2023/12/03 06:28:30;;;;;;;2.30;2.00;;;;;;;16.40;52.11;97160.10;105423;1257;74603;-31
2023/12/03 06:30:57;;;;;;;2.60;2.30;;;;;;;16.40;52.14;97161.47;105491;1261;65884;-31
2023/12/03 06:33:24;;;;;;;2.40;2.20;;;;;;;16.40;52.06;97169.66;105508;1258;72248;-31
2023/12/03 06:35:55;;;;;;;2.30;2.10;;;;;;;16.40;52.17;97172.88;105452;1260;61277;-31
2023/12/03 06:38:23;;;;;;;2.30;2.10;;;;;;;16.39;52.13;97179.75;105264;1257;61199;-32
2023/12/03 06:40:50;;;;;;;2.50;2.30;;;;;;;16.40;52.19;97183.85;105199;1261;74852;-31
2023/12/03 06:43:18;;;;;;;2.50;2.30;;;;;;;16.39;52.11;97183.45;105122;1261;64745;-31
2023/12/03 06:45:45;;;;;;;2.50;2.20;;;;;;;16.39;52.13;97183.98;105350;1258;72961;-31
2023/12/03 06:48:12;;;;;;;2.70;2.00;;;;;;;16.39;52.17;97185.15;105357;1259;61560;-31
2023/12/03 06:50:40;;;;;;;2.30;2.10;;;;;;;16.39;52.11;97182.44;105098;1261;61323;-33
2023/12/03 06:53:12;;;;;;;2.20;2.00;;;;;;;16.39;52.11;97180.98;105315;1257;74643;-32
2023/12/03 06:55:39;;;;;;;2.60;2.40;;;;;;;16.38;52.07;97183.36;105359;1260;66230;-31
2023/12/03 06:58:06;;;;;;;2.50;2.20;;;;;;;16.38;52.13;97188.69;105498;1257;72622;-31
2023/12/03 07:00:34;;;;;;;2.60;2.40;;;;;;;16.38;52.05;97186.91;105041;1261;178408;-31
2023/12/03 07:03:01;;;;;;;2.30;2.10;;;;;;;16.39;52.04;97190.23;105239;1257;61251;-33
2023/12/03 07:05:29;;;;;;;2.20;2.00;;;;;;;16.38;52.03;97208.69;105482;1258;74602;-32
2023/12/03 07:07:56;;;;;;;2.60;2.40;;;;;;;16.38;51.98;97218.71;105512;1260;65920;-32
2023/12/03 07:10:24;;;;;;;2.30;2.00;;;;;;;16.38;52.04;97233.68;105572;1258;72557;-31
2023/12/03 07:12:51;;;;;;;2.50;2.20;;;;;;;16.38;52.01;97243.96;105523;1260;61365;-31
2023/12/03 07:15:19;;;;;;;2.60;2.40;;;;;;;16.37;51.97;97258.06;105488;1257;61268;-32
2023/12/03 07:17:46;;;;;;;3.30;2.20;;;;;;;16.37;51.92;97268.88;105564;1257;74585;-31
2023/12/03 07:20:13;;;;;;;2.70;2.30;;;;;;;16.38;51.95;97270.27;105203;1261;66336;-31
2023/12/03 07:22:41;;;;;;;2.50;2.20;;;;;;;16.38;51.95;97275.14;105144;1258;72723;-31
2023/12/03 07:25:08;;;;;;;2.80;2.10;;;;;;;16.38;51.96;97279.09;105479;1259;61237;-31
2023/12/03 07:27:37;;;;;;;2.50;2.30;;;;;;;16.38;51.97;97286.88;105313;1258;61351;-31
2023/12/03 07:30:06;;;;;;;2.50;2.10;;;;;;;16.37;51.98;97291.64;105280;1257;74591;-31
2023/12/03 07:32:33;;;;;;;3.00;2.40;;;;;;;16.37;51.98;97302.61;105241;1257;65172;-33
2023/12/03 07:35:01;;;;;;;2.90;2.60;;;;;;;16.37;51.96;97298.98;105516;1258;73621;-31
2023/12/03 07:37:29;;;;;;;3.10;2.40;;;;;;;16.37;51.88;97303.38;105316;1260;61244;-32
2023/12/03 07:39:56;;;;;;;2.50;2.20;;;;;;;16.37;51.98;97307.70;105136;1258;61360;-32
2023/12/03 07:42:27;;;;;;;2.50;2.30;;;;;;;16.37;51.87;97305.31;105167;1260;74678;-32
2023/12/03 07:44:54;;;;;;;2.40;2.20;;;;;;;16.37;51.91;97307.32;105325;1260;66116;-31
2023/12/03 07:47:22;;;;;;;3.00;2.50;;;;;;;16.37;51.88;97308.40;105281;1257;72500;-32
2023/12/03 07:49:49;;;;;;;3.20;2.30;;;;;;;16.37;51.89;97304.84;105108;1261;61257;-33
2023/12/03 07:52:16;;;;;;;2.30;2.10;;;;;;;16.36;51.97;97311.25;105296;1261;63113;-33
2023/12/03 07:54:44;;;;;;;2.60;2.40;;;;;;;16.37;51.90;97314.26;105151;1259;74464;-31
2023/12/03 07:57:11;;;;;;;2.60;2.30;;;;;;;16.37;51.83;97316.44;105153;1258;66036;-31
2023/12/03 07:59:39;;;;;;;2.80;1.90;;;;;;;16.37;51.87;97313.66;105468;1258;74802;-31
2023/12/03 08:02:07;;;;;;;2.30;2.00;;;;;;;16.37;51.85;97317.13;105515;1257;61325;-31
2023/12/03 08:04:34;;;;;;;2.30;2.10;;;;;;;16.37;51.83;97329.23;105303;1258;61282;-31
2023/12/03 08:07:02;;;;;;;2.40;2.20;;;;;;;16.37;51.87;97341.14;105144;1258;74615;-31
2023/12/03 08:09:29;;;;;;;4.10;2.30;;;;;;;16.37;51.81;97350.86;105091;1260;66296;-32
2023/12/03 08:11:57;;;;;;;2.50;2.20;;;;;;;16.36;51.79;97348.55;105404;1258;72618;-33
2023/12/03 08:14:24;;;;;;;2.60;2.30;;;;;;;16.36;51.72;97348.01;105322;1260;61267;-31
2023/12/03 08:16:51;;;;;;;3.40;2.20;;;;;;;16.37;51.66;97343.67;105168;1257;61332;-32
2023/12/03 08:19:19;;;;;;;2.50;2.30;;;;;;;16.37;51.70;97348.63;105085;1258;74732;-32
2023/12/03 08:21:47;;;;;;;2.40;2.10;;;;;;;16.38;51.75;97358.61;105245;1260;66106;-31
2023/12/03 08:24:14;;;;;;;2.50;1.90;;;;;;;16.37;51.67;97371.58;105418;1258;72664;-32
2023/12/03 08:26:45;;;;;;;2.50;2.10;;;;;;;16.38;51.65;97372.98;105262;1260;61271;-32
2023/12/03 08:29:12;;;;;;;2.90;2.50;;;;;;;16.38;51.64;97373.36;105232;1258;61262;-32
2023/12/03 08:31:40;;;;;;;3.30;2.20;;;;;;;16.38;51.54;97383.11;105193;1257;74590;-31
2023/12/03 08:34:07;;;;;;;2.60;2.40;;;;;;;16.39;51.59;97393.86;105135;1260;65501;-32
2023/12/03 08:36:35;;;;;;;2.70;2.10;;;;;;;16.38;51.60;97398.25;105472;1258;73144;-31
2023/12/03 08:39:05;;;;;;;2.80;2.20;;;;;;;16.39;51.59;97402.66;105188;1261;61244;-32
2023/12/03 08:41:33;;;;;;;2.80;2.50;;;;;;;16.39;51.47;97400.13;105322;1257;61355;-32
2023/12/03 08:44:00;;;;;;;2.60;2.40;;;;;;;16.39;51.52;97400.36;105485;1260;74597;-32
2023/12/03 08:46:27;;;;;;;2.80;2.10;;;;;;;16.40;51.49;97400.76;105347;1260;65750;-32
2023/12/03 08:48:56;;;;;;;2.50;2.20;;;;;;;16.40;51.44;97406.59;105231;1257;72748;-32
2023/12/03 08:51:23;;;;;;;2.00;1.90;;;;;;;16.41;51.49;97420.50;105374;1261;61259;-31
2023/12/03 08:53:51;;;;;;;2.50;2.30;;;;;;;16.42;51.45;97428.14;105525;1260;61225;-32
2023/12/03 08:56:18;;;;;;;2.50;2.10;;;;;;;16.42;51.39;97435.73;105416;1259;74413;-32
2023/12/03 08:58:45;;;;;;;2.90;2.20;;;;;;;16.43;51.39;97450.04;105324;1260;65033;-31
2023/12/03 09:01:13;;;;;;;2.40;2.20;;;;;;;16.43;51.34;97463.03;105517;1258;72625;-31
2023/12/03 09:03:40;;;;;;;2.60;2.00;;;;;;;16.43;51.36;97474.39;105134;1260;61179;-32
2023/12/03 09:06:08;;;;;;;2.90;2.30;;;;;;;16.44;51.33;97478.64;105177;1257;61349;-32
2023/12/03 09:08:36;;;;;;;3.40;2.20;;;;;;;16.44;51.32;97484.42;105197;1260;75097;-32
2023/12/03 09:11:07;;;;;;;2.50;2.10;;;;;;;16.44;51.26;97492.55;105448;1260;65943;-31
2023/12/03 09:13:34;;;;;;;2.40;2.20;;;;;;;16.45;51.38;97495.73;105237;1257;72602;-32
2023/12/03 09:16:01;;;;;;;2.10;1.90;;;;;;;16.45;51.28;97493.96;105317;1261;61328;-31
2023/12/03 09:18:29;;;;;;;2.50;2.20;;;;;;;16.45;51.39;97502.00;105114;1256;61301;-32
2023/12/03 09:20:56;;;;;;;2.40;2.20;;;;;;;16.45;51.31;97500.45;105485;1260;74429;-32
2023/12/03 09:23:23;;;;;;;2.20;2.00;;;;;;;16.46;51.31;97500.09;105459;1260;66116;-32
2023/12/03 09:25:51;;;;;;;2.70;2.20;;;;;;;16.46;51.33;97503.40;105487;1258;73358;-32
2023/12/03 09:28:18;;;;;;;2.40;2.20;;;;;;;16.46;51.34;97505.19;105326;1260;61236;-33
2023/12/03 09:30:46;;;;;;;2.20;2.00;;;;;;;16.46;51.33;97513.61;105327;1258;61449;-33
2023/12/03 09:33:14;;;;;;;2.20;2.00;;;;;;;16.45;51.34;97517.98;105210;1259;74648;-33
2023/12/03 09:35:41;;;;;;;2.80;2.20;;;;;;;16.45;51.33;97519.46;105164;1260;65872;-32
2023/12/03 09:38:08;;;;;;;2.60;2.30;;;;;;;16.46;51.26;97517.45;105335;1257;72689;-33
2023/12/03 09:40:36;;;;;;;2.40;2.20;;;;;;;16.45;51.31;97519.30;105205;1261;61263;-32
2023/12/03 09:43:04;;;;;;;2.50;2.30;;;;;;;16.45;51.31;97522.77;105511;1258;61157;-31
2023/12/03 09:45:31;;;;;;;2.40;2.20;;;;;;;16.46;51.25;97527.34;105580;1260;74353;-33
2023/12/03 09:48:00;;;;;;;2.70;2.20;;;;;;;16.46;51.24;97525.73;105467;1260;66134;-32
2023/12/03 09:50:31;;;;;;;2.40;2.20;;;;;;;16.46;51.18;97527.27;105538;1258;72515;-31
2023/12/03 09:52:58;;;;;;;2.30;2.00;;;;;;;16.46;51.24;97533.98;105119;1263;61293;-32
2023/12/03 09:55:26;;;;;;;2.60;2.10;;;;;;;16.46;51.29;97540.48;105072;1257;61356;-32
2023/12/03 09:57:54;;;;;;;3.40;2.10;;;;;;;16.46;51.20;97541.80;105197;1258;74568;-31
2023/12/03 10:00:22;;;;;;;3.20;2.20;;;;;;;16.46;51.26;97546.89;105218;1261;67169;-31
2023/12/03 10:02:53;;;;;;;2.30;2.10;;;;;;;16.47;51.34;97549.23;105566;1257;72634;-31
2023/12/03 10:05:21;;;;;;;2.30;2.10;;;;;;;16.46;51.31;97549.59;105266;1260;61260;-32
2023/12/03 10:07:50;;;;;;;2.50;2.00;;;;;;;16.46;51.24;97554.62;105301;1257;61293;-31
2023/12/03 10:10:18;;;;;;;2.60;2.40;;;;;;;16.46;51.23;97560.88;105430;1259;74456;-32
2023/12/03 10:12:47;;;;;;;2.40;2.20;;;;;;;16.47;51.19;97573.08;105292;1257;66044;-32
2023/12/03 10:15:14;;;;;;;3.40;2.50;;;;;;;16.47;51.20;97582.90;105202;1257;72586;-31
2023/12/03 10:17:43;;;;;;;2.00;1.80;;;;;;;16.47;51.23;97585.13;105220;1261;61259;-32
2023/12/03 10:20:21;;;;;;;2.20;2.00;;;;;;;16.47;51.22;97588.30;105318;1258;61348;-32
2023/12/03 10:22:54;;;;;;;2.60;2.30;;;;;;;16.48;51.21;97594.12;105596;1258;74649;-33
2023/12/03 10:25:26;;;;;;;2.40;2.20;;;;;;;16.48;51.21;97594.84;105516;1260;65149;-33
2023/12/03 10:27:56;;;;;;;3.20;2.20;;;;;;;16.48;51.25;97602.02;105486;1257;72612;-33
2023/12/03 10:30:25;;;;;;;2.40;2.20;;;;;;;16.48;51.19;97600.88;105402;1261;61219;-31
2023/12/03 10:32:52;;;;;;;2.40;2.20;;;;;;;16.49;51.17;97604.98;105239;1261;61204;-31
2023/12/03 10:35:23;;;;;;;2.60;2.30;;;;;;;16.49;51.20;97600.83;105216;1261;74648;-32
2023/12/03 10:37:51;;;;;;;3.10;2.60;;;;;;;16.50;51.20;97601.77;105269;1261;65932;-32
2023/12/03 10:40:18;;;;;;;2.50;1.90;;;;;;;16.50;51.07;97599.38;105395;1257;73682;-33
2023/12/03 10:42:46;;;;;;;2.40;2.00;;;;;;;16.50;51.17;97604.72;105338;1260;61175;-30
2023/12/03 10:45:14;;;;;;;2.30;2.10;;;;;;;16.51;51.16;97606.98;105516;1258;61360;-32
2023/12/03 10:47:42;;;;;;;2.30;2.10;;;;;;;16.51;51.15;97613.09;105366;1259;73461;-31
2023/12/03 10:50:11;;;;;;;4.70;2.40;;;;;;;16.51;51.15;97619.35;105439;1257;66410;-31
2023/12/03 10:52:39;;;;;;;2.50;2.20;;;;;;;16.51;51.08;97625.14;105416;1260;72636;-31
2023/12/03 10:55:07;;;;;;;2.40;2.20;;;;;;;16.51;51.11;97626.27;105284;1259;61172;-31
2023/12/03 10:57:43;;;;;;;2.50;2.30;;;;;;;16.50;51.03;97629.36;105466;1260;61247;-31
2023/12/03 11:00:11;;;;;;;2.40;2.00;;;;;;;16.51;51.01;97630.98;105511;1257;74152;-32
2023/12/03 11:02:41;;;;;;;2.70;2.30;;;;;;;16.50;51.07;97638.40;105372;1257;64880;-31
2023/12/03 11:05:11;;;;;;;2.30;2.10;;;;;;;16.50;51.01;97649.11;105152;1257;72921;-31
2023/12/03 11:07:38;;;;;;;2.30;2.10;;;;;;;16.50;51.08;97651.35;105314;1263;61356;-31
2023/12/03 11:10:06;;;;;;;2.80;2.20;;;;;;;16.50;51.05;97654.98;105071;1257;61376;-31
2023/12/03 11:12:34;;;;;;;2.40;2.20;;;;;;;16.50;51.03;97660.23;105178;1257;74498;-33
2023/12/03 11:15:01;;;;;;;2.80;2.50;;;;;;;16.50;51.03;97657.67;105447;1260;67141;-32
2023/12/03 11:17:41;;;;;;;2.50;2.30;;;;;;;16.49;51.08;97652.50;105260;1258;73490;-31
2023/12/03 11:20:14;;;;;;;3.10;2.50;;;;;;;16.49;51.10;97658.90;105509;1260;61211;-31
2023/12/03 11:22:47;;;;;;;2.80;2.40;;;;;;;16.49;51.08;97661.84;105237;1258;61349;-32
2023/12/03 11:25:15;;;;;;;2.50;2.30;;;;;;;16.49;51.03;97670.48;105208;1260;75387;-33
2023/12/03 11:27:43;;;;;;;3.00;2.40;;;;;;;16.49;51.05;97676.96;105372;1257;66651;-32